createdAt,value
2019-05-10T00:02:11.123Z,30.00
2019-05-10T00:09:53.282Z,29.90
2019-05-10T00:36:40.336Z,28.60
2019-05-10T00:46:33.084Z,28.80
2019-05-10T01:12:33.960Z,29.80
2019-05-10T03:34:54.489Z,30.40
2019-05-10T03:35:56.620Z,30.50
2019-05-10T03:39:07.152Z,30.50
2019-05-10T03:42:05.029Z,30.50
2019-05-10T03:44:58.527Z,30.50
2019-05-10T03:48:38.498Z,30.40
2019-05-10T03:52:05.135Z,30.40
2019-05-10T03:55:47.557Z,30.40
2019-05-10T03:58:54.230Z,30.30
2019-05-10T04:02:01.363Z,30.20
2019-05-10T04:12:52.651Z,30.10
2019-05-10T04:16:00.312Z,30.30
2019-05-10T04:19:12.836Z,30.10
2019-05-10T04:22:10.285Z,30.20
2019-05-10T04:25:30.871Z,30.10
2019-05-10T04:28:35.922Z,30.00
2019-05-10T04:31:39.154Z,30.00
2019-05-10T04:34:33.251Z,29.90
2019-05-10T04:37:54.051Z,30.00
2019-05-10T04:40:39.634Z,29.20
2019-05-10T04:43:46.732Z,29.70
2019-05-10T04:46:37.543Z,30.20
2019-05-10T04:49:32.018Z,30.10
2019-05-10T04:52:27.353Z,30.20
2019-05-10T04:55:21.263Z,30.20
2019-05-10T04:58:27.179Z,30.20
2019-05-10T05:01:26.912Z,31.10
2019-05-10T05:04:34.010Z,30.40
2019-05-10T05:07:47.411Z,30.20
2019-05-10T05:10:48.191Z,30.40
2019-05-10T05:14:09.824Z,29.90
2019-05-10T05:38:23.546Z,28.90
2019-05-10T05:41:22.921Z,29.40
2019-05-10T05:44:26.261Z,28.80
2019-05-10T05:47:17.345Z,28.70
2019-05-10T05:50:14.113Z,28.70
2019-05-10T05:53:10.020Z,28.90
2019-05-10T05:56:12.828Z,28.90
2019-05-10T05:59:17.343Z,28.80
2019-05-10T06:13:02.219Z,28.80
2019-05-10T06:16:00.135Z,29.10
2019-05-10T06:18:55.014Z,28.90
2019-05-10T06:22:07.302Z,28.90
2019-05-10T06:24:59.195Z,28.70
2019-05-10T06:27:54.879Z,28.80
2019-05-10T06:30:54.784Z,28.70
2019-05-10T06:33:50.175Z,29.00
2019-05-10T06:36:45.010Z,28.60
2019-05-10T06:39:42.673Z,28.70
2019-05-10T06:42:47.901Z,28.80
2019-05-10T06:45:46.642Z,28.80
2019-05-10T06:48:37.772Z,28.60
2019-05-10T06:51:32.258Z,28.60
2019-05-10T06:54:28.771Z,28.60
2019-05-10T06:57:22.870Z,28.70
2019-05-10T07:00:22.769Z,28.60
2019-05-10T07:03:19.713Z,28.60
2019-05-10T07:06:16.952Z,28.60
2019-05-10T07:09:15.365Z,28.60
2019-05-10T07:12:15.165Z,28.80
2019-05-10T07:15:09.786Z,28.70
2019-05-10T07:18:06.484Z,29.00
2019-05-10T07:21:07.241Z,28.90
2019-05-10T07:24:06.918Z,28.90
2019-05-10T07:27:06.502Z,29.00
2019-05-10T07:30:09.055Z,29.00
2019-05-10T07:33:18.826Z,29.20
2019-05-10T07:43:26.267Z,28.90
2019-05-10T07:46:16.470Z,28.90
2019-05-10T07:49:10.715Z,28.90
2019-05-10T07:52:04.685Z,29.00
2019-05-10T07:55:00.910Z,29.10
2019-05-10T07:58:05.127Z,29.30
2019-05-10T08:04:35.107Z,29.40
2019-05-10T08:07:32.685Z,29.40
2019-05-10T08:10:39.467Z,29.40
2019-05-10T08:13:57.869Z,29.30
2019-05-10T08:16:57.898Z,29.20
2019-05-10T08:20:38.322Z,29.50
2019-05-10T08:23:28.127Z,29.20
2019-05-10T08:26:24.588Z,29.30
2019-05-10T08:29:42.775Z,29.40
2019-05-10T08:32:42.471Z,29.50
2019-05-10T08:35:36.661Z,29.60
2019-05-10T08:38:31.871Z,29.50
2019-05-10T08:41:32.399Z,29.40
2019-05-10T08:45:03.357Z,29.20
2019-05-10T08:47:51.975Z,29.20
2019-05-10T08:50:52.303Z,29.40
2019-05-10T08:53:37.495Z,29.20
2019-05-10T08:56:35.432Z,29.30
2019-05-10T08:59:30.690Z,29.50
2019-05-10T09:02:29.076Z,29.50
2019-05-10T09:08:36.222Z,29.80
2019-05-10T09:11:34.260Z,29.80
2019-05-10T09:14:32.559Z,29.90
2019-05-10T09:17:28.286Z,29.30
2019-05-10T09:20:26.277Z,29.10
2019-05-10T09:23:20.229Z,29.00
2019-05-10T09:26:16.600Z,29.10
2019-05-10T09:29:16.124Z,29.20
2019-05-10T09:33:00.315Z,27.80
2019-05-10T09:35:54.940Z,27.10
2019-05-10T09:57:14.204Z,26.60
2019-05-10T10:00:30.247Z,27.80
2019-05-10T10:03:29.599Z,27.80
2019-05-10T10:06:36.768Z,27.50
2019-05-10T10:10:41.728Z,27.40
2019-05-10T10:13:51.903Z,27.30
2019-05-10T10:16:58.399Z,27.10
2019-05-10T10:19:49.292Z,27.00
2019-05-10T10:23:37.762Z,27.00
2019-05-10T10:26:38.010Z,26.80
2019-05-10T10:29:50.532Z,27.00
2019-05-10T10:32:47.697Z,26.80
2019-05-10T10:35:43.234Z,26.50
2019-05-10T10:38:45.232Z,26.50
2019-05-10T10:41:39.718Z,26.30
2019-05-10T10:44:32.848Z,26.40
2019-05-10T10:47:37.870Z,26.20
2019-05-10T10:50:29.014Z,26.20
2019-05-10T10:53:27.898Z,26.40
2019-05-10T10:56:23.740Z,26.20
2019-05-10T10:59:18.592Z,26.00
2019-05-10T11:02:33.563Z,26.10
2019-05-10T11:06:22.745Z,26.30
2019-05-10T11:08:33.203Z,26.00
2019-05-10T11:11:30.768Z,25.90
2019-05-10T11:14:22.737Z,26.10
2019-05-10T11:17:20.221Z,25.90
2019-05-10T11:20:16.219Z,25.90
2019-05-10T11:23:11.234Z,26.00
2019-05-10T11:26:07.285Z,26.20
2019-05-10T11:29:14.198Z,26.00
2019-05-10T11:32:15.800Z,25.90
2019-05-10T11:35:11.903Z,25.80
2019-05-10T11:38:12.889Z,25.90
2019-05-10T11:41:15.160Z,25.90
2019-05-10T11:44:08.975Z,26.00
2019-05-10T11:47:20.942Z,25.90
2019-05-10T11:50:06.335Z,25.90
2019-05-10T11:53:00.993Z,25.90
2019-05-10T11:56:07.776Z,26.00
2019-05-10T11:59:17.080Z,26.00
2019-05-10T12:02:37.087Z,26.30
2019-05-10T12:05:20.047Z,26.30
2019-05-10T12:08:12.942Z,26.30
2019-05-10T12:11:16.061Z,26.30
2019-05-10T12:14:02.134Z,26.40
2019-05-10T12:16:56.973Z,26.60
2019-05-10T12:19:55.893Z,26.70
2019-05-10T12:22:51.523Z,27.00
2019-05-10T12:26:16.516Z,27.30
2019-05-10T12:28:43.671Z,27.50
2019-05-10T12:31:38.295Z,27.50
2019-05-10T12:34:34.456Z,27.70
2019-05-10T12:37:33.676Z,27.70
2019-05-10T12:40:45.609Z,27.80
2019-05-10T12:43:40.875Z,28.10
2019-05-10T12:46:39.774Z,27.90
2019-05-10T12:49:44.144Z,28.00
2019-05-10T22:29:04.628Z,31.60
2019-05-10T22:32:50.958Z,32.40
2019-05-10T22:40:49.051Z,32.40
2019-05-10T22:56:01.942Z,32.90
2019-05-10T23:30:13.699Z,33.50
2019-05-10T23:33:15.183Z,33.60
2019-05-10T23:36:13.532Z,33.70
2019-05-10T23:39:52.329Z,33.80
2019-05-10T23:42:57.500Z,33.60
2019-05-10T23:45:57.597Z,33.90
2019-05-10T23:48:59.587Z,33.80
2019-05-10T23:51:57.859Z,33.60
2019-05-10T23:58:36.232Z,33.90
